GIA82X WIII-WSSS
Flight info
| Callsign | GIA82X |
|---|---|
| Flight time | 1h 23m |
| Altitude | 36000 |
| Route | DOLTA G579 REPOV REPOV2B |
| Aircraft | B38M/M-SDE1FGHILORVWXY/HB1 |
Departure
| Time | 2026-05-07 14:30 |
|---|---|
| Airport | Soekarno-Hatta International Airport (WIII) |
Arrival
| Time | 2026-05-07 15:53 |
|---|---|
| Airport | Singapore Changi Airport (WSSS) |
| Time | Latitude | Longitude | Altitude | Speed | Heading |
|---|---|---|---|---|---|
| 2026-05-07 14:06 | -6.11804 | 106.65946 | 40 ft | 0 kts | 248° |
| 2026-05-07 14:20 | -6.11801 | 106.65953 | 40 ft | 3 kts | 250° |
| 2026-05-07 14:20 | -6.11796 | 106.65973 | 40 ft | 3 kts | 258° |
| 2026-05-07 14:21 | -6.11793 | 106.65993 | 40 ft | 3 kts | 272° |
| 2026-05-07 14:21 | -6.11797 | 106.66011 | 40 ft | 3 kts | 301° |
| 2026-05-07 14:21 | -6.11806 | 106.66021 | 40 ft | 1 kts | 337° |
| 2026-05-07 14:21 | -6.11807 | 106.66022 | 40 ft | 1 kts | 338° |
| 2026-05-07 14:24 | -6.11773 | 106.66008 | 40 ft | 11 kts | 338° |
| 2026-05-07 14:24 | -6.11668 | 106.65965 | 38 ft | 20 kts | 338° |
| 2026-05-07 14:25 | -6.11542 | 106.65908 | 40 ft | 13 kts | 331° |
| 2026-05-07 14:25 | -6.11509 | 106.65859 | 40 ft | 13 kts | 272° |
| 2026-05-07 14:25 | -6.11554 | 106.65716 | 40 ft | 21 kts | 250° |
| 2026-05-07 14:25 | -6.11620 | 106.65555 | 40 ft | 29 kts | 247° |
| 2026-05-07 14:26 | -6.11705 | 106.65345 | 40 ft | 34 kts | 249° |
| 2026-05-07 14:26 | -6.11794 | 106.65121 | 41 ft | 34 kts | 247° |
| 2026-05-07 14:26 | -6.11881 | 106.64900 | 40 ft | 35 kts | 249° |
| 2026-05-07 14:26 | -6.11968 | 106.64675 | 41 ft | 35 kts | 249° |
| 2026-05-07 14:27 | -6.12058 | 106.64449 | 40 ft | 35 kts | 248° |
| 2026-05-07 14:27 | -6.12150 | 106.64222 | 39 ft | 35 kts | 248° |
| 2026-05-07 14:27 | -6.12236 | 106.64008 | 41 ft | 13 kts | 243° |
| 2026-05-07 14:27 | -6.12249 | 106.63976 | 41 ft | 5 kts | 256° |
| 2026-05-07 14:28 | -6.12254 | 106.63940 | 41 ft | 6 kts | 268° |
| 2026-05-07 14:28 | -6.12246 | 106.63899 | 41 ft | 5 kts | 295° |
| 2026-05-07 14:28 | -6.12227 | 106.63882 | 42 ft | 3 kts | 340° |
| 2026-05-07 14:28 | -6.12178 | 106.63882 | 42 ft | 13 kts | 5° |
| 2026-05-07 14:29 | -6.12079 | 106.63919 | 40 ft | 10 kts | 60° |
| 2026-05-07 14:29 | -6.12059 | 106.63967 | 40 ft | 19 kts | 67° |
| 2026-05-07 14:29 | -6.11918 | 106.64321 | 40 ft | 88 kts | 69° |
| 2026-05-07 14:29 | -6.11616 | 106.65073 | 42 ft | 145 kts | 69° |
| 2026-05-07 14:30 | -6.11184 | 106.66130 | 321 ft | 169 kts | 68° |
| 2026-05-07 14:30 | -6.10723 | 106.67249 | 935 ft | 186 kts | 66° |
| 2026-05-07 14:30 | -6.10118 | 106.68498 | 1437 ft | 205 kts | 62° |
| 2026-05-07 14:30 | -6.09456 | 106.69719 | 2527 ft | 195 kts | 58° |
| 2026-05-07 14:31 | -6.08517 | 106.70685 | 3349 ft | 201 kts | 27° |
| 2026-05-07 14:31 | -6.07162 | 106.71227 | 3991 ft | 219 kts | 22° |
| 2026-05-07 14:31 | -6.05696 | 106.71846 | 4662 ft | 237 kts | 21° |
| 2026-05-07 14:31 | -6.04014 | 106.71979 | 5202 ft | 257 kts | 346° |
| 2026-05-07 14:32 | -6.02472 | 106.71078 | 5844 ft | 273 kts | 315° |
| 2026-05-07 14:32 | -6.01139 | 106.69676 | 6696 ft | 279 kts | 314° |
| 2026-05-07 14:32 | -5.99673 | 106.68365 | 7462 ft | 289 kts | 321° |
| 2026-05-07 14:32 | -5.98138 | 106.67074 | 8391 ft | 292 kts | 320° |
| 2026-05-07 14:33 | -5.97115 | 106.66203 | 8959 ft | 296 kts | 320° |
| 2026-05-07 14:33 | -5.95006 | 106.64388 | 10094 ft | 301 kts | 319° |
| 2026-05-07 14:33 | -5.93941 | 106.63464 | 10573 ft | 308 kts | 319° |
| 2026-05-07 14:33 | -5.91720 | 106.61538 | 11397 ft | 325 kts | 319° |
| 2026-05-07 14:34 | -5.89974 | 106.60022 | 12014 ft | 337 kts | 319° |
| 2026-05-07 14:34 | -5.88192 | 106.58469 | 12811 ft | 342 kts | 319° |
| 2026-05-07 14:34 | -5.86995 | 106.57425 | 13324 ft | 345 kts | 319° |
| 2026-05-07 14:34 | -5.85174 | 106.55835 | 14157 ft | 348 kts | 319° |
| 2026-05-07 14:35 | -5.83335 | 106.54228 | 14935 ft | 353 kts | 319° |
| 2026-05-07 14:35 | -5.81469 | 106.52599 | 15722 ft | 356 kts | 319° |
| 2026-05-07 14:35 | -5.78977 | 106.50423 | 16708 ft | 360 kts | 319° |
| 2026-05-07 14:35 | -5.77695 | 106.49303 | 17203 ft | 362 kts | 319° |
| 2026-05-07 14:36 | -5.75803 | 106.47651 | 17866 ft | 367 kts | 320° |
| 2026-05-07 14:36 | -5.73878 | 106.45967 | 18605 ft | 368 kts | 320° |
| 2026-05-07 14:36 | -5.71934 | 106.44269 | 19216 ft | 372 kts | 320° |
| 2026-05-07 14:36 | -5.69966 | 106.42550 | 19786 ft | 377 kts | 319° |
| 2026-05-07 14:37 | -5.67986 | 106.40821 | 19867 ft | 378 kts | 319° |
| 2026-05-07 14:37 | -5.64032 | 106.37364 | 21087 ft | 380 kts | 319° |
| 2026-05-07 14:37 | -5.62008 | 106.35600 | 21596 ft | 384 kts | 319° |
| 2026-05-07 14:38 | -5.60009 | 106.33854 | 22136 ft | 387 kts | 319° |
| 2026-05-07 14:38 | -5.57966 | 106.32069 | 22619 ft | 390 kts | 319° |
| 2026-05-07 14:38 | -5.55911 | 106.30275 | 23141 ft | 392 kts | 319° |
| 2026-05-07 14:38 | -5.53842 | 106.28469 | 23637 ft | 396 kts | 319° |
| 2026-05-07 14:39 | -5.51757 | 106.26649 | 24186 ft | 397 kts | 319° |
| 2026-05-07 14:39 | -5.49667 | 106.24825 | 24632 ft | 400 kts | 319° |
| 2026-05-07 14:39 | -5.47555 | 106.22983 | 25057 ft | 403 kts | 319° |
| 2026-05-07 14:39 | -5.45432 | 106.21129 | 25513 ft | 405 kts | 319° |
| 2026-05-07 14:40 | -5.44019 | 106.19896 | 25826 ft | 407 kts | 319° |
| 2026-05-07 14:40 | -5.41145 | 106.17388 | 26353 ft | 411 kts | 319° |
| 2026-05-07 14:40 | -5.38997 | 106.15514 | 26772 ft | 414 kts | 319° |
| 2026-05-07 14:40 | -5.36822 | 106.13616 | 27209 ft | 416 kts | 319° |
| 2026-05-07 14:41 | -5.34627 | 106.11701 | 27595 ft | 419 kts | 319° |
| 2026-05-07 14:41 | -5.32424 | 106.09779 | 28021 ft | 420 kts | 319° |
| 2026-05-07 14:41 | -5.30212 | 106.07849 | 28380 ft | 423 kts | 319° |
| 2026-05-07 14:41 | -5.27986 | 106.05908 | 28726 ft | 426 kts | 319° |
| 2026-05-07 14:42 | -5.25734 | 106.03944 | 29084 ft | 428 kts | 319° |
| 2026-05-07 14:42 | -5.23480 | 106.01978 | 29435 ft | 430 kts | 319° |
| 2026-05-07 14:42 | -5.21237 | 106.00022 | 29785 ft | 432 kts | 319° |
| 2026-05-07 14:42 | -5.18971 | 105.98046 | 30120 ft | 435 kts | 320° |
| 2026-05-07 14:43 | -5.16674 | 105.96043 | 30480 ft | 436 kts | 320° |
| 2026-05-07 14:43 | -5.14379 | 105.94042 | 30825 ft | 438 kts | 320° |
| 2026-05-07 14:43 | -5.11987 | 105.92146 | 31091 ft | 440 kts | 329° |
| 2026-05-07 14:43 | -5.09307 | 105.90643 | 31403 ft | 441 kts | 331° |
| 2026-05-07 14:44 | -5.06630 | 105.89102 | 31655 ft | 445 kts | 331° |
| 2026-05-07 14:44 | -5.03941 | 105.87562 | 31949 ft | 447 kts | 331° |
| 2026-05-07 14:44 | -5.01227 | 105.86014 | 32235 ft | 449 kts | 331° |
| 2026-05-07 14:44 | -4.98504 | 105.84462 | 32523 ft | 451 kts | 331° |
| 2026-05-07 14:45 | -4.95806 | 105.82925 | 32795 ft | 453 kts | 332° |
| 2026-05-07 14:45 | -4.93053 | 105.81357 | 33044 ft | 456 kts | 332° |
| 2026-05-07 14:45 | -4.90285 | 105.79779 | 33357 ft | 457 kts | 332° |
| 2026-05-07 14:45 | -4.87519 | 105.78206 | 33620 ft | 459 kts | 332° |
| 2026-05-07 14:46 | -4.84722 | 105.76612 | 33906 ft | 461 kts | 332° |
| 2026-05-07 14:46 | -4.81930 | 105.75023 | 34270 ft | 459 kts | 332° |
| 2026-05-07 14:46 | -4.79151 | 105.73441 | 34624 ft | 459 kts | 332° |
| 2026-05-07 14:46 | -4.76379 | 105.71863 | 34966 ft | 458 kts | 332° |
| 2026-05-07 14:47 | -4.73613 | 105.70289 | 35290 ft | 458 kts | 332° |
| 2026-05-07 14:47 | -4.70833 | 105.68706 | 35607 ft | 458 kts | 332° |
| 2026-05-07 14:47 | -4.68059 | 105.67128 | 35890 ft | 459 kts | 332° |
| 2026-05-07 14:47 | -4.65281 | 105.65547 | 35908 ft | 457 kts | 332° |
| 2026-05-07 14:48 | -4.59791 | 105.62424 | 35910 ft | 457 kts | 332° |
| 2026-05-07 14:48 | -4.54259 | 105.59276 | 35907 ft | 457 kts | 332° |
| 2026-05-07 14:49 | -4.48728 | 105.56130 | 35907 ft | 457 kts | 332° |
| 2026-05-07 14:49 | -4.43201 | 105.52987 | 35911 ft | 457 kts | 332° |
| 2026-05-07 14:50 | -4.37699 | 105.49859 | 35908 ft | 456 kts | 332° |
| 2026-05-07 14:50 | -4.32155 | 105.46708 | 35907 ft | 457 kts | 332° |
| 2026-05-07 14:51 | -4.26620 | 105.43562 | 35905 ft | 457 kts | 332° |
| 2026-05-07 14:51 | -4.21117 | 105.40434 | 35908 ft | 457 kts | 332° |
| 2026-05-07 14:52 | -4.15554 | 105.37275 | 35907 ft | 457 kts | 332° |
| 2026-05-07 14:52 | -4.10061 | 105.34153 | 35905 ft | 457 kts | 332° |
| 2026-05-07 14:53 | -4.04520 | 105.31006 | 35908 ft | 457 kts | 332° |
| 2026-05-07 14:53 | -3.98980 | 105.27860 | 35908 ft | 457 kts | 332° |
| 2026-05-07 14:54 | -3.93485 | 105.24738 | 35907 ft | 457 kts | 332° |
| 2026-05-07 14:54 | -3.87939 | 105.21614 | 35908 ft | 457 kts | 332° |
| 2026-05-07 14:55 | -3.82393 | 105.18491 | 35908 ft | 457 kts | 332° |
| 2026-05-07 14:55 | -3.76840 | 105.15365 | 35912 ft | 457 kts | 332° |
| 2026-05-07 14:56 | -3.71287 | 105.12238 | 35914 ft | 457 kts | 333° |
| 2026-05-07 14:56 | -3.65734 | 105.09112 | 35914 ft | 457 kts | 333° |
| 2026-05-07 14:57 | -3.60220 | 105.06008 | 35914 ft | 457 kts | 332° |
| 2026-05-07 14:57 | -3.54671 | 105.02885 | 35917 ft | 457 kts | 332° |
| 2026-05-07 14:58 | -3.49279 | 104.99851 | 35914 ft | 457 kts | 333° |
| 2026-05-07 14:58 | -3.43735 | 104.96732 | 35916 ft | 457 kts | 332° |
| 2026-05-07 14:59 | -3.38176 | 104.93605 | 35915 ft | 457 kts | 332° |
| 2026-05-07 14:59 | -3.32633 | 104.90487 | 35919 ft | 457 kts | 332° |
| 2026-05-07 15:00 | -3.27109 | 104.87381 | 35912 ft | 457 kts | 332° |
| 2026-05-07 15:00 | -3.21563 | 104.84257 | 35915 ft | 457 kts | 333° |
| 2026-05-07 15:01 | -3.16006 | 104.81137 | 35915 ft | 457 kts | 333° |
| 2026-05-07 15:01 | -3.10448 | 104.78013 | 35915 ft | 457 kts | 333° |
| 2026-05-07 15:02 | -3.04926 | 104.74909 | 35915 ft | 458 kts | 333° |
| 2026-05-07 15:02 | -2.99369 | 104.71786 | 35917 ft | 458 kts | 333° |
| 2026-05-07 15:03 | -2.93812 | 104.68662 | 35911 ft | 457 kts | 333° |
| 2026-05-07 15:03 | -2.88199 | 104.65653 | 35901 ft | 454 kts | 342° |
| 2026-05-07 15:04 | -2.82109 | 104.64281 | 35906 ft | 452 kts | 351° |
| 2026-05-07 15:04 | -2.75931 | 104.63067 | 35915 ft | 452 kts | 351° |
| 2026-05-07 15:05 | -2.69740 | 104.61891 | 35915 ft | 453 kts | 351° |
| 2026-05-07 15:05 | -2.63549 | 104.60722 | 35914 ft | 453 kts | 351° |
| 2026-05-07 15:06 | -2.57360 | 104.59551 | 35915 ft | 453 kts | 352° |
| 2026-05-07 15:06 | -2.51167 | 104.58381 | 35915 ft | 453 kts | 352° |
| 2026-05-07 15:07 | -2.45009 | 104.57218 | 35909 ft | 453 kts | 351° |
| 2026-05-07 15:07 | -2.38814 | 104.56047 | 35910 ft | 453 kts | 352° |
| 2026-05-07 15:08 | -2.32621 | 104.54877 | 35909 ft | 453 kts | 352° |
| 2026-05-07 15:08 | -2.26430 | 104.53708 | 35910 ft | 453 kts | 352° |
| 2026-05-07 15:09 | -2.20231 | 104.52537 | 35913 ft | 452 kts | 352° |
| 2026-05-07 15:09 | -2.14088 | 104.51376 | 35917 ft | 452 kts | 352° |
| 2026-05-07 15:10 | -2.07893 | 104.50205 | 35912 ft | 453 kts | 352° |
| 2026-05-07 15:10 | -2.01693 | 104.49035 | 35915 ft | 452 kts | 352° |
| 2026-05-07 15:11 | -1.95541 | 104.47873 | 35916 ft | 453 kts | 351° |
| 2026-05-07 15:11 | -1.89336 | 104.46702 | 35915 ft | 453 kts | 351° |
| 2026-05-07 15:12 | -1.83124 | 104.45529 | 35913 ft | 453 kts | 351° |
| 2026-05-07 15:12 | -1.76967 | 104.44366 | 35914 ft | 453 kts | 352° |
| 2026-05-07 15:13 | -1.70751 | 104.43193 | 35918 ft | 453 kts | 352° |
| 2026-05-07 15:13 | -1.64547 | 104.42022 | 35916 ft | 454 kts | 351° |
| 2026-05-07 15:14 | -1.58335 | 104.40849 | 35914 ft | 454 kts | 352° |
| 2026-05-07 15:14 | -1.52160 | 104.39684 | 35922 ft | 454 kts | 351° |
| 2026-05-07 15:15 | -1.45954 | 104.38512 | 35918 ft | 454 kts | 352° |
| 2026-05-07 15:15 | -1.39745 | 104.37341 | 35916 ft | 454 kts | 351° |
| 2026-05-07 15:16 | -1.33525 | 104.36167 | 35917 ft | 455 kts | 351° |
| 2026-05-07 15:16 | -1.27292 | 104.34991 | 35916 ft | 455 kts | 351° |
| 2026-05-07 15:17 | -1.21060 | 104.33814 | 35916 ft | 455 kts | 351° |
| 2026-05-07 15:17 | -1.14864 | 104.32646 | 35915 ft | 456 kts | 351° |
| 2026-05-07 15:18 | -1.08647 | 104.31473 | 35915 ft | 456 kts | 351° |
| 2026-05-07 15:18 | -1.02390 | 104.30292 | 35915 ft | 456 kts | 351° |
| 2026-05-07 15:19 | -0.96129 | 104.29111 | 35914 ft | 457 kts | 352° |
| 2026-05-07 15:19 | -0.89880 | 104.27932 | 35917 ft | 457 kts | 352° |
| 2026-05-07 15:20 | -0.83624 | 104.26752 | 35916 ft | 457 kts | 352° |
| 2026-05-07 15:20 | -0.77412 | 104.25580 | 35918 ft | 458 kts | 351° |
| 2026-05-07 15:21 | -0.71131 | 104.24395 | 35907 ft | 458 kts | 351° |
| 2026-05-07 15:21 | -0.64865 | 104.23213 | 35865 ft | 451 kts | 352° |
| 2026-05-07 15:22 | -0.61805 | 104.22636 | 35658 ft | 444 kts | 352° |
| 2026-05-07 15:22 | -0.58811 | 104.22071 | 35408 ft | 438 kts | 352° |
| 2026-05-07 15:22 | -0.55829 | 104.21491 | 35157 ft | 435 kts | 351° |
| 2026-05-07 15:22 | -0.52868 | 104.20900 | 34903 ft | 433 kts | 351° |
| 2026-05-07 15:23 | -0.50914 | 104.20512 | 34735 ft | 432 kts | 351° |
| 2026-05-07 15:23 | -0.47004 | 104.19736 | 34253 ft | 426 kts | 351° |
| 2026-05-07 15:23 | -0.45067 | 104.19352 | 33838 ft | 427 kts | 351° |
| 2026-05-07 15:23 | -0.41160 | 104.18577 | 33051 ft | 427 kts | 351° |
| 2026-05-07 15:24 | -0.39223 | 104.18193 | 32742 ft | 425 kts | 351° |
| 2026-05-07 15:24 | -0.36340 | 104.17621 | 32283 ft | 421 kts | 351° |
| 2026-05-07 15:24 | -0.33465 | 104.17051 | 31804 ft | 418 kts | 351° |
| 2026-05-07 15:24 | -0.30625 | 104.16488 | 31322 ft | 415 kts | 351° |
| 2026-05-07 15:25 | -0.27797 | 104.15927 | 30840 ft | 412 kts | 351° |
| 2026-05-07 15:25 | -0.24991 | 104.15370 | 30361 ft | 409 kts | 351° |
| 2026-05-07 15:25 | -0.22244 | 104.14826 | 29906 ft | 406 kts | 351° |
| 2026-05-07 15:25 | -0.19471 | 104.14276 | 29432 ft | 404 kts | 351° |
| 2026-05-07 15:26 | -0.16724 | 104.13731 | 28962 ft | 401 kts | 351° |
| 2026-05-07 15:26 | -0.13999 | 104.13191 | 28497 ft | 398 kts | 351° |
| 2026-05-07 15:26 | -0.11290 | 104.12654 | 28053 ft | 394 kts | 351° |
| 2026-05-07 15:26 | -0.08598 | 104.12120 | 27586 ft | 391 kts | 351° |
| 2026-05-07 15:27 | -0.05940 | 104.11593 | 27128 ft | 389 kts | 351° |
| 2026-05-07 15:27 | -0.03315 | 104.11072 | 26672 ft | 386 kts | 351° |
| 2026-05-07 15:27 | -0.00696 | 104.10553 | 26234 ft | 382 kts | 351° |
| 2026-05-07 15:27 | 0.01916 | 104.10035 | 25795 ft | 380 kts | 351° |
| 2026-05-07 15:28 | 0.04498 | 104.09523 | 25352 ft | 376 kts | 351° |
| 2026-05-07 15:28 | 0.07055 | 104.09016 | 24918 ft | 373 kts | 351° |
| 2026-05-07 15:28 | 0.09591 | 104.08514 | 24482 ft | 371 kts | 351° |
| 2026-05-07 15:28 | 0.12129 | 104.08010 | 24053 ft | 368 kts | 351° |
| 2026-05-07 15:29 | 0.14640 | 104.07512 | 23625 ft | 365 kts | 351° |
| 2026-05-07 15:29 | 0.17097 | 104.07025 | 23186 ft | 363 kts | 351° |
| 2026-05-07 15:29 | 0.19581 | 104.06532 | 22588 ft | 365 kts | 351° |
| 2026-05-07 15:29 | 0.22078 | 104.06037 | 21999 ft | 367 kts | 351° |
| 2026-05-07 15:30 | 0.24590 | 104.05538 | 21413 ft | 368 kts | 351° |
| 2026-05-07 15:30 | 0.27110 | 104.05038 | 20884 ft | 368 kts | 351° |
| 2026-05-07 15:30 | 0.29596 | 104.04545 | 20628 ft | 360 kts | 351° |
| 2026-05-07 15:30 | 0.32019 | 104.04065 | 20406 ft | 351 kts | 351° |
| 2026-05-07 15:31 | 0.34398 | 104.03593 | 20134 ft | 348 kts | 351° |
| 2026-05-07 15:31 | 0.36778 | 104.03122 | 19854 ft | 348 kts | 351° |
| 2026-05-07 15:31 | 0.39160 | 104.02649 | 19575 ft | 347 kts | 351° |
| 2026-05-07 15:31 | 0.41511 | 104.02184 | 19299 ft | 346 kts | 351° |
| 2026-05-07 15:32 | 0.43877 | 104.01715 | 19021 ft | 346 kts | 351° |
| 2026-05-07 15:32 | 0.46229 | 104.01248 | 18748 ft | 344 kts | 350° |
| 2026-05-07 15:32 | 0.48575 | 104.00783 | 18472 ft | 343 kts | 350° |
| 2026-05-07 15:32 | 0.50913 | 104.00319 | 18201 ft | 342 kts | 350° |
| 2026-05-07 15:33 | 0.53244 | 103.99857 | 17924 ft | 341 kts | 350° |
| 2026-05-07 15:33 | 0.55566 | 103.99397 | 17654 ft | 340 kts | 350° |
| 2026-05-07 15:33 | 0.57858 | 103.98942 | 17387 ft | 338 kts | 350° |
| 2026-05-07 15:33 | 0.60164 | 103.98484 | 17119 ft | 335 kts | 350° |
| 2026-05-07 15:34 | 0.62422 | 103.98038 | 16865 ft | 328 kts | 350° |
| 2026-05-07 15:34 | 0.64647 | 103.97596 | 16606 ft | 321 kts | 350° |
| 2026-05-07 15:34 | 0.66817 | 103.97165 | 16353 ft | 314 kts | 350° |
| 2026-05-07 15:34 | 0.68935 | 103.96744 | 16117 ft | 307 kts | 351° |
| 2026-05-07 15:35 | 0.71007 | 103.96335 | 15864 ft | 300 kts | 351° |
| 2026-05-07 15:35 | 0.73052 | 103.96281 | 15555 ft | 290 kts | 14° |
| 2026-05-07 15:35 | 0.74887 | 103.96932 | 15371 ft | 280 kts | 24° |
| 2026-05-07 15:35 | 0.76701 | 103.97663 | 15140 ft | 282 kts | 24° |
| 2026-05-07 15:36 | 0.78515 | 103.98405 | 14961 ft | 281 kts | 24° |
| 2026-05-07 15:36 | 0.80322 | 103.99154 | 14921 ft | 281 kts | 25° |
| 2026-05-07 15:36 | 0.82130 | 103.99910 | 14910 ft | 282 kts | 25° |
| 2026-05-07 15:36 | 0.83940 | 104.00672 | 14910 ft | 282 kts | 25° |
| 2026-05-07 15:37 | 0.85750 | 104.01436 | 14908 ft | 282 kts | 25° |
| 2026-05-07 15:37 | 0.87556 | 104.02198 | 14919 ft | 282 kts | 25° |
| 2026-05-07 15:37 | 0.89364 | 104.02962 | 14918 ft | 282 kts | 25° |
| 2026-05-07 15:37 | 0.91179 | 104.03729 | 14660 ft | 285 kts | 25° |
| 2026-05-07 15:38 | 0.92999 | 104.04498 | 14170 ft | 289 kts | 25° |
| 2026-05-07 15:38 | 0.94864 | 104.05287 | 13680 ft | 293 kts | 25° |
| 2026-05-07 15:38 | 0.96755 | 104.06087 | 13175 ft | 297 kts | 25° |
| 2026-05-07 15:38 | 0.98670 | 104.06897 | 12666 ft | 299 kts | 25° |
| 2026-05-07 15:39 | 1.00593 | 104.07710 | 12236 ft | 299 kts | 25° |
| 2026-05-07 15:39 | 1.02497 | 104.08514 | 11946 ft | 295 kts | 25° |
| 2026-05-07 15:39 | 1.04366 | 104.09304 | 11771 ft | 287 kts | 25° |
| 2026-05-07 15:39 | 1.06177 | 104.10070 | 11578 ft | 278 kts | 25° |
| 2026-05-07 15:40 | 1.07936 | 104.10814 | 11368 ft | 270 kts | 25° |
| 2026-05-07 15:40 | 1.09627 | 104.11529 | 11175 ft | 264 kts | 25° |
| 2026-05-07 15:40 | 1.11322 | 104.12246 | 10959 ft | 265 kts | 25° |
| 2026-05-07 15:40 | 1.13020 | 104.12965 | 10741 ft | 265 kts | 25° |
| 2026-05-07 15:41 | 1.14712 | 104.13688 | 10535 ft | 265 kts | 25° |
| 2026-05-07 15:41 | 1.16415 | 104.14411 | 10290 ft | 264 kts | 25° |
| 2026-05-07 15:41 | 1.18109 | 104.15133 | 10083 ft | 264 kts | 25° |
| 2026-05-07 15:41 | 1.19793 | 104.15851 | 9874 ft | 263 kts | 25° |
| 2026-05-07 15:42 | 1.21454 | 104.16558 | 9676 ft | 262 kts | 25° |
| 2026-05-07 15:42 | 1.23125 | 104.17270 | 9479 ft | 261 kts | 25° |
| 2026-05-07 15:42 | 1.24795 | 104.17982 | 9271 ft | 261 kts | 25° |
| 2026-05-07 15:42 | 1.26458 | 104.18691 | 9051 ft | 260 kts | 25° |
| 2026-05-07 15:43 | 1.28125 | 104.19401 | 8846 ft | 259 kts | 25° |
| 2026-05-07 15:43 | 1.29245 | 104.19879 | 8714 ft | 259 kts | 25° |
| 2026-05-07 15:43 | 1.31434 | 104.20810 | 8448 ft | 257 kts | 24° |
| 2026-05-07 15:43 | 1.33183 | 104.21166 | 8176 ft | 260 kts | 357° |
| 2026-05-07 15:44 | 1.34956 | 104.20852 | 7987 ft | 259 kts | 349° |
| 2026-05-07 15:44 | 1.36724 | 104.20486 | 7781 ft | 259 kts | 349° |
| 2026-05-07 15:44 | 1.38482 | 104.20117 | 7596 ft | 259 kts | 349° |
| 2026-05-07 15:44 | 1.40246 | 104.19745 | 7388 ft | 259 kts | 349° |
| 2026-05-07 15:45 | 1.42011 | 104.19369 | 7190 ft | 258 kts | 349° |
| 2026-05-07 15:45 | 1.43757 | 104.18995 | 6957 ft | 256 kts | 349° |
| 2026-05-07 15:45 | 1.45484 | 104.18623 | 6730 ft | 251 kts | 349° |
| 2026-05-07 15:45 | 1.47147 | 104.18267 | 6551 ft | 244 kts | 349° |
| 2026-05-07 15:46 | 1.50416 | 104.17566 | 6161 ft | 236 kts | 349° |
| 2026-05-07 15:46 | 1.51998 | 104.17226 | 5986 ft | 230 kts | 349° |
| 2026-05-07 15:46 | 1.53563 | 104.16888 | 5975 ft | 232 kts | 348° |
| 2026-05-07 15:47 | 1.55100 | 104.16358 | 5974 ft | 234 kts | 333° |
| 2026-05-07 15:47 | 1.56386 | 104.15363 | 6040 ft | 235 kts | 312° |
| 2026-05-07 15:47 | 1.57454 | 104.14137 | 5784 ft | 233 kts | 313° |
| 2026-05-07 15:47 | 1.58565 | 104.12924 | 5333 ft | 240 kts | 313° |
| 2026-05-07 15:48 | 1.59566 | 104.11599 | 4857 ft | 247 kts | 294° |
| 2026-05-07 15:48 | 1.59802 | 104.09918 | 4352 ft | 253 kts | 260° |
| 2026-05-07 15:48 | 1.59063 | 104.08346 | 3951 ft | 249 kts | 226° |
| 2026-05-07 15:48 | 1.57689 | 104.07420 | 3732 ft | 233 kts | 203° |
| 2026-05-07 15:49 | 1.56273 | 104.06802 | 3654 ft | 215 kts | 202° |
| 2026-05-07 15:49 | 1.54918 | 104.06226 | 3517 ft | 207 kts | 201° |
| 2026-05-07 15:49 | 1.53640 | 104.05686 | 3390 ft | 197 kts | 201° |
| 2026-05-07 15:49 | 1.52375 | 104.05152 | 3118 ft | 196 kts | 201° |
| 2026-05-07 15:50 | 1.51127 | 104.04623 | 2869 ft | 195 kts | 202° |
| 2026-05-07 15:50 | 1.49872 | 104.04092 | 2616 ft | 195 kts | 201° |
| 2026-05-07 15:50 | 1.48648 | 104.03571 | 2357 ft | 192 kts | 201° |
| 2026-05-07 15:50 | 1.47431 | 104.03054 | 2104 ft | 188 kts | 202° |
| 2026-05-07 15:51 | 1.46240 | 104.02548 | 1859 ft | 184 kts | 202° |
| 2026-05-07 15:51 | 1.45062 | 104.02051 | 1616 ft | 184 kts | 202° |
| 2026-05-07 15:51 | 1.43913 | 104.01563 | 1392 ft | 173 kts | 203° |
| 2026-05-07 15:51 | 1.42858 | 104.01115 | 1159 ft | 157 kts | 204° |
| 2026-05-07 15:52 | 1.41853 | 104.00691 | 961 ft | 158 kts | 204° |
| 2026-05-07 15:52 | 1.40874 | 104.00275 | 756 ft | 148 kts | 204° |
| 2026-05-07 15:52 | 1.39934 | 103.99874 | 556 ft | 145 kts | 204° |
| 2026-05-07 15:52 | 1.39005 | 103.99476 | 322 ft | 145 kts | 205° |
| 2026-05-07 15:53 | 1.38097 | 103.99100 | 139 ft | 144 kts | 202° |
| 2026-05-07 15:53 | 1.37174 | 103.98711 | 39 ft | 137 kts | 203° |
| 2026-05-07 15:53 | 1.36481 | 103.98419 | 26 ft | 72 kts | 202° |
| 2026-05-07 15:53 | 1.36109 | 103.98285 | 26 ft | 36 kts | 187° |
| 2026-05-07 15:54 | 1.35956 | 103.98293 | 26 ft | 9 kts | 173° |
| 2026-05-07 15:54 | 1.35924 | 103.98308 | 26 ft | 1 kts | 152° |
| 2026-05-07 15:54 | 1.35908 | 103.98311 | 26 ft | 4 kts | 174° |
| 2026-05-07 15:54 | 1.35871 | 103.98312 | 26 ft | 7 kts | 180° |
| 2026-05-07 15:55 | 1.35801 | 103.98312 | 26 ft | 13 kts | 181° |
| 2026-05-07 15:55 | 1.35699 | 103.98284 | 26 ft | 18 kts | 199° |
| 2026-05-07 15:55 | 1.35627 | 103.98254 | 26 ft | 1 kts | 204° |
| 2026-05-07 15:55 | 1.35612 | 103.98247 | 26 ft | 4 kts | 204° |
| 2026-05-07 15:56 | 1.35578 | 103.98232 | 26 ft | 7 kts | 204° |
| 2026-05-07 15:56 | 1.35520 | 103.98207 | 26 ft | 11 kts | 203° |
| 2026-05-07 15:56 | 1.35436 | 103.98172 | 26 ft | 15 kts | 203° |
| 2026-05-07 15:56 | 1.35333 | 103.98164 | 26 ft | 17 kts | 129° |
| 2026-05-07 15:57 | 1.35226 | 103.98181 | 26 ft | 18 kts | 199° |
| 2026-05-07 15:57 | 1.35100 | 103.98132 | 26 ft | 21 kts | 202° |
| 2026-05-07 15:57 | 1.34991 | 103.98085 | 26 ft | 9 kts | 204° |
| 2026-05-07 15:57 | 1.34975 | 103.98077 | 26 ft | 0 kts | 204° |
| 2026-05-07 15:58 | 1.35164 | 103.98161 | 26 ft | 2 kts | 192° |
| 2026-05-07 15:58 | 1.35154 | 103.98163 | 26 ft | 1 kts | 147° |
| 2026-05-07 15:58 | 1.35148 | 103.98175 | 26 ft | 4 kts | 114° |
| 2026-05-07 15:58 | 1.35137 | 103.98213 | 26 ft | 3 kts | 81° |
| 2026-05-07 15:59 | 1.35150 | 103.98230 | 26 ft | 4 kts | 39° |
| 2026-05-07 15:59 | 1.35188 | 103.98252 | 26 ft | 9 kts | 29° |
| 2026-05-07 15:59 | 1.35247 | 103.98281 | 26 ft | 6 kts | 39° |
| 2026-05-07 15:59 | 1.35247 | 103.98317 | 26 ft | 6 kts | 105° |
| 2026-05-07 16:00 | 1.35228 | 103.98363 | 26 ft | 7 kts | 112° |
| 2026-05-07 16:00 | 1.35221 | 103.98380 | 26 ft | 0 kts | 112° |
| 2026-05-07 16:01 | 1.35220 | 103.98382 | 26 ft | 2 kts | 112° |
| 2026-05-07 16:01 | 1.35217 | 103.98390 | 26 ft | 1 kts | 114° |